createdAt,value
2023-04-26T00:01:35.560Z,8.48
2023-04-26T00:04:03.530Z,8.48
2023-04-26T00:06:30.845Z,8.45
2023-04-26T00:08:57.879Z,8.51
2023-04-26T00:11:24.891Z,8.53
2023-04-26T00:13:52.102Z,8.32
2023-04-26T00:16:20.208Z,8.45
2023-04-26T00:18:47.333Z,8.47
2023-04-26T00:21:14.655Z,8.15
2023-04-26T00:23:42.237Z,7.94
2023-04-26T00:26:09.232Z,7.76
2023-04-26T00:28:36.309Z,7.55
2023-04-26T00:31:03.304Z,7.65
2023-04-26T00:33:30.643Z,7.82
2023-04-26T00:35:57.617Z,7.83
2023-04-26T00:38:24.691Z,7.82
2023-04-26T00:40:51.753Z,7.92
2023-04-26T00:43:18.828Z,7.77
2023-04-26T00:45:46.108Z,7.81
2023-04-26T00:48:13.304Z,7.75
2023-04-26T00:50:40.424Z,7.74
2023-04-26T00:53:08.989Z,7.76
2023-04-26T00:55:36.871Z,7.86
2023-04-26T00:58:03.917Z,7.79
2023-04-26T01:00:30.914Z,7.80
2023-04-26T01:02:58.138Z,7.95
2023-04-26T01:05:25.727Z,7.88
2023-04-26T01:07:52.884Z,7.89
2023-04-26T01:10:19.888Z,7.95
2023-04-26T01:12:47.989Z,7.92
2023-04-26T01:15:14.985Z,7.85
2023-04-26T01:17:42.034Z,7.93
2023-04-26T01:20:10.540Z,8.15
2023-04-26T01:22:37.561Z,8.12
2023-04-26T01:25:07.796Z,8.09
2023-04-26T01:27:36.136Z,7.99
2023-04-26T01:30:03.873Z,8.08
2023-04-26T01:32:31.046Z,8.09
2023-04-26T01:34:58.099Z,8.18
2023-04-26T01:37:25.152Z,8.16
2023-04-26T01:39:52.441Z,8.22
2023-04-26T01:42:19.468Z,8.26
2023-04-26T01:44:46.619Z,8.26
2023-04-26T01:47:13.670Z,8.34
2023-04-26T01:49:41.691Z,8.08
2023-04-26T01:52:08.791Z,7.95
2023-04-26T01:54:35.845Z,8.02
2023-04-26T01:57:02.986Z,8.01
2023-04-26T01:59:30.256Z,7.98
2023-04-26T02:01:57.485Z,8.04
2023-04-26T02:04:24.537Z,8.04
2023-04-26T02:06:51.544Z,7.92
2023-04-26T02:09:18.652Z,7.91
2023-04-26T02:11:46.168Z,7.83
2023-04-26T02:14:13.321Z,7.70
2023-04-26T02:16:40.686Z,7.86
2023-04-26T02:19:10.970Z,7.83
2023-04-26T02:21:57.178Z,7.88
2023-04-26T02:24:25.329Z,7.89
2023-04-26T02:26:54.600Z,7.85
2023-04-26T02:29:32.691Z,7.93
2023-04-26T02:32:07.914Z,7.98
2023-04-26T02:34:35.626Z,7.84
2023-04-26T02:37:02.699Z,7.84
2023-04-26T02:39:29.686Z,7.81
2023-04-26T02:41:57.619Z,7.98
2023-04-26T02:44:24.642Z,7.95
2023-04-26T02:46:51.723Z,7.82
2023-04-26T02:49:18.764Z,7.78
2023-04-26T02:51:45.783Z,7.97
2023-04-26T02:54:12.792Z,8.00
2023-04-26T02:56:39.801Z,7.94
2023-04-26T02:59:07.218Z,8.01
2023-04-26T03:01:34.354Z,7.98
2023-04-26T03:04:01.620Z,7.99
2023-04-26T03:06:29.869Z,8.12
2023-04-26T03:08:56.910Z,8.15
2023-04-26T03:11:23.951Z,7.90
2023-04-26T03:13:50.933Z,7.81
2023-04-26T03:16:23.433Z,7.81
2023-04-26T03:18:51.356Z,7.92
2023-04-26T03:21:18.633Z,7.83
2023-04-26T03:23:46.007Z,7.92
2023-04-26T03:26:13.002Z,7.81
2023-04-26T03:28:41.816Z,7.84
2023-04-26T03:31:08.774Z,7.74
2023-04-26T03:33:35.875Z,7.81
2023-04-26T03:36:02.923Z,7.91
2023-04-26T03:38:29.942Z,7.87
2023-04-26T03:40:56.907Z,7.78
2023-04-26T03:43:24.004Z,7.60
2023-04-26T03:45:52.654Z,7.73
2023-04-26T03:48:19.718Z,7.54
2023-04-26T03:50:46.833Z,7.65
2023-04-26T03:53:13.848Z,7.33
2023-04-26T03:55:41.844Z,7.18
2023-04-26T03:58:08.914Z,7.33
2023-04-26T04:00:38.840Z,7.70
2023-04-26T04:03:07.375Z,7.71
2023-04-26T04:05:34.782Z,7.60
2023-04-26T04:08:01.992Z,7.75
2023-04-26T04:10:29.769Z,8.22
2023-04-26T04:12:56.949Z,9.13
2023-04-26T04:15:24.078Z,9.38
2023-04-26T04:17:51.221Z,10.89
2023-04-26T04:20:18.464Z,12.84
2023-04-26T04:22:45.586Z,14.34
2023-04-26T04:25:13.770Z,14.81
2023-04-26T04:27:45.188Z,14.98
2023-04-26T04:30:12.551Z,16.67
2023-04-26T04:32:40.349Z,18.26
2023-04-26T04:35:07.893Z,18.66
2023-04-26T04:37:35.046Z,19.52
2023-04-26T04:40:02.192Z,19.41
2023-04-26T04:42:29.233Z,20.16
2023-04-26T04:44:57.230Z,20.47
2023-04-26T04:47:24.310Z,20.59
2023-04-26T04:49:53.060Z,20.67
2023-04-26T04:52:21.931Z,21.71
2023-04-26T04:54:48.999Z,21.73
2023-04-26T04:57:16.826Z,22.15
2023-04-26T04:59:43.968Z,22.89
2023-04-26T05:02:11.132Z,22.71
2023-04-26T05:04:38.407Z,23.57
2023-04-26T05:07:06.664Z,24.88
2023-04-26T05:09:33.980Z,21.59
2023-04-26T05:12:01.354Z,23.39
2023-04-26T05:14:29.969Z,23.40
2023-04-26T05:16:57.648Z,23.34
2023-04-26T05:19:24.895Z,22.20
2023-04-26T05:21:53.358Z,19.18
2023-04-26T05:24:20.315Z,16.96
2023-04-26T05:26:47.572Z,16.37
2023-04-26T05:29:14.584Z,17.78
2023-04-26T05:31:41.645Z,20.34
2023-04-26T05:34:08.676Z,23.62
2023-04-26T05:36:35.754Z,25.00
2023-04-26T05:39:02.770Z,26.24
2023-04-26T05:41:29.771Z,26.90
2023-04-26T05:43:57.245Z,27.55
2023-04-26T05:46:24.337Z,28.81
2023-04-26T05:48:52.052Z,30.57
2023-04-26T05:51:19.098Z,29.24
2023-04-26T05:53:46.249Z,29.59
2023-04-26T05:56:13.239Z,30.56
2023-04-26T05:58:40.306Z,30.64
2023-04-26T06:01:07.502Z,30.02
2023-04-26T06:03:34.805Z,30.81
2023-04-26T06:06:02.201Z,33.56
2023-04-26T06:08:29.472Z,33.63
2023-04-26T06:10:56.495Z,32.59
2023-04-26T06:13:23.623Z,31.77
2023-04-26T06:15:50.615Z,32.78
2023-04-26T06:18:17.667Z,32.04
2023-04-26T06:20:44.633Z,33.51
2023-04-26T06:23:11.639Z,31.66
2023-04-26T06:25:44.254Z,31.37
2023-04-26T06:28:13.058Z,31.58
2023-04-26T06:30:40.146Z,31.41
2023-04-26T06:33:07.204Z,32.57
2023-04-26T06:35:39.399Z,32.37
2023-04-26T06:38:06.721Z,32.72
2023-04-26T06:40:34.768Z,31.03
2023-04-26T06:43:01.792Z,31.16
2023-04-26T06:45:28.908Z,31.88
2023-04-26T06:47:57.195Z,31.73
2023-04-26T06:50:24.230Z,30.96
2023-04-26T06:52:51.560Z,32.84
2023-04-26T06:55:19.081Z,32.11
2023-04-26T06:57:46.109Z,32.58
2023-04-26T07:00:14.074Z,33.53
2023-04-26T07:02:41.453Z,32.53
2023-04-26T07:05:09.591Z,32.62
2023-04-26T07:07:36.623Z,31.83
2023-04-26T07:10:04.729Z,30.97
2023-04-26T07:12:31.798Z,32.00
2023-04-26T07:14:58.878Z,31.79
2023-04-26T07:17:25.895Z,31.73
2023-04-26T07:19:54.005Z,32.92
2023-04-26T07:22:22.551Z,27.01
2023-04-26T07:24:49.648Z,28.15
2023-04-26T07:27:16.634Z,28.44
2023-04-26T07:29:43.639Z,29.57
2023-04-26T07:32:11.382Z,27.88
2023-04-26T07:34:38.474Z,25.80
2023-04-26T07:37:05.480Z,26.54
2023-04-26T07:39:32.509Z,28.28
2023-04-26T07:41:59.551Z,25.89
2023-04-26T07:44:26.710Z,26.13
2023-04-26T07:46:53.688Z,25.13
2023-04-26T07:49:20.757Z,24.21
2023-04-26T07:51:48.991Z,22.14
2023-04-26T07:54:15.981Z,22.53
2023-04-26T07:56:42.957Z,23.91
2023-04-26T07:59:09.931Z,24.47
2023-04-26T08:01:37.174Z,23.71
2023-04-26T08:04:05.075Z,22.19
2023-04-26T08:06:33.315Z,20.84
2023-04-26T08:09:00.409Z,19.77
2023-04-26T08:11:27.445Z,19.07
2023-04-26T08:13:54.615Z,18.59
2023-04-26T08:16:21.830Z,20.04
2023-04-26T08:18:48.884Z,19.97
2023-04-26T08:21:16.088Z,19.95
2023-04-26T08:23:43.071Z,20.54
2023-04-26T08:26:10.127Z,20.60
2023-04-26T08:28:38.071Z,21.17
2023-04-26T08:31:05.395Z,21.16
2023-04-26T08:33:32.505Z,19.88
2023-04-26T08:36:01.863Z,18.75
2023-04-26T08:38:29.776Z,18.37
2023-04-26T08:41:03.533Z,16.81
2023-04-26T08:43:30.575Z,16.74
2023-04-26T08:46:00.629Z,16.78
2023-04-26T08:48:30.073Z,17.70
2023-04-26T08:50:57.283Z,17.84
2023-04-26T08:53:25.130Z,17.94
2023-04-26T08:55:53.313Z,17.92
2023-04-26T08:58:21.431Z,17.23
2023-04-26T09:00:49.106Z,18.05
2023-04-26T09:03:16.374Z,18.84
2023-04-26T09:05:44.352Z,19.37
2023-04-26T09:08:17.544Z,19.48
2023-04-26T09:10:45.504Z,20.33
2023-04-26T09:13:12.995Z,19.18
2023-04-26T09:15:40.531Z,18.62
2023-04-26T09:18:21.602Z,18.18
2023-04-26T09:21:09.391Z,17.30
2023-04-26T09:23:36.860Z,17.22
2023-04-26T09:26:21.113Z,16.85
2023-04-26T09:28:48.416Z,16.49
2023-04-26T09:31:39.625Z,17.18
2023-04-26T09:34:07.146Z,17.14
2023-04-26T09:36:58.058Z,17.28
2023-04-26T09:39:38.095Z,16.73
2023-04-26T09:42:06.065Z,15.96
2023-04-26T09:44:33.816Z,15.71
2023-04-26T09:47:12.837Z,16.14
2023-04-26T09:49:51.986Z,15.66
2023-04-26T09:52:19.596Z,15.27
2023-04-26T09:54:50.075Z,15.07
2023-04-26T09:57:19.592Z,15.30
2023-04-26T09:59:54.333Z,15.24
2023-04-26T10:02:28.037Z,15.04
2023-04-26T10:04:57.508Z,14.92
2023-04-26T10:07:26.801Z,14.89
2023-04-26T10:09:55.684Z,15.06
2023-04-26T10:12:22.905Z,14.56
2023-04-26T10:14:49.964Z,14.74
2023-04-26T10:17:21.070Z,14.65
2023-04-26T10:19:53.468Z,15.07
2023-04-26T10:22:33.646Z,15.43
2023-04-26T10:25:00.996Z,15.22
2023-04-26T10:27:43.361Z,14.90
2023-04-26T10:30:14.041Z,14.85
2023-04-26T10:32:56.165Z,13.49
2023-04-26T10:35:32.567Z,13.97
2023-04-26T10:38:02.397Z,13.95
2023-04-26T10:40:40.918Z,14.10
2023-04-26T10:43:18.293Z,14.33
2023-04-26T10:45:46.965Z,14.19
2023-04-26T10:48:23.737Z,14.28
2023-04-26T10:51:02.793Z,14.71
2023-04-26T10:53:45.633Z,15.21
2023-04-26T10:56:32.548Z,15.05
2023-04-26T10:59:33.145Z,14.91
2023-04-26T11:02:01.329Z,15.33
2023-04-26T11:04:52.582Z,15.33
2023-04-26T11:07:37.893Z,15.08
2023-04-26T11:10:10.631Z,14.64
2023-04-26T11:12:41.772Z,14.80
2023-04-26T11:15:09.412Z,14.90
2023-04-26T11:17:38.268Z,14.58
2023-04-26T11:20:10.413Z,14.51
2023-04-26T11:22:41.912Z,14.45
2023-04-26T11:25:09.890Z,14.20
2023-04-26T11:27:37.297Z,14.31
2023-04-26T11:30:05.372Z,14.77
2023-04-26T11:32:33.744Z,14.93
2023-04-26T11:35:01.348Z,14.34
2023-04-26T11:37:28.452Z,14.23
2023-04-26T11:39:57.741Z,14.32
2023-04-26T11:42:27.552Z,14.76
2023-04-26T11:44:57.423Z,14.84
2023-04-26T11:47:26.121Z,15.06
2023-04-26T11:49:53.379Z,14.88
2023-04-26T11:52:20.505Z,14.41
2023-04-26T11:54:47.552Z,14.02
2023-04-26T11:57:17.749Z,13.80
2023-04-26T11:59:46.223Z,13.49
2023-04-26T12:02:13.378Z,12.93
2023-04-26T12:04:41.488Z,12.79
2023-04-26T12:07:09.535Z,12.51
2023-04-26T12:09:42.813Z,12.80
2023-04-26T12:12:11.214Z,13.41
2023-04-26T12:14:41.461Z,13.85
2023-04-26T12:17:08.637Z,13.67
2023-04-26T12:19:37.277Z,13.87
2023-04-26T12:22:06.064Z,13.29
2023-04-26T12:24:35.935Z,13.12
2023-04-26T12:27:07.176Z,12.78
2023-04-26T12:29:35.497Z,12.86
2023-04-26T12:32:04.204Z,12.92
2023-04-26T12:34:31.722Z,12.65
2023-04-26T12:36:58.798Z,12.68
2023-04-26T12:39:25.926Z,12.77
2023-04-26T12:41:53.143Z,13.07
2023-04-26T12:44:22.080Z,13.22
2023-04-26T12:46:50.126Z,13.37
2023-04-26T12:49:17.329Z,13.33
2023-04-26T12:51:44.372Z,13.54
2023-04-26T12:54:11.316Z,13.25
2023-04-26T12:56:43.880Z,13.23
2023-04-26T12:59:11.209Z,13.39
2023-04-26T13:01:38.333Z,13.18
2023-04-26T13:04:06.274Z,12.98
2023-04-26T13:06:34.061Z,12.76
2023-04-26T13:09:01.814Z,12.65
2023-04-26T13:11:28.999Z,12.69
2023-04-26T13:13:55.965Z,12.87
2023-04-26T13:16:23.316Z,12.74
2023-04-26T13:18:50.394Z,13.08
2023-04-26T13:21:17.417Z,13.15
2023-04-26T13:23:44.457Z,12.93
2023-04-26T13:26:11.438Z,13.09
2023-04-26T13:28:38.487Z,12.87
2023-04-26T13:31:06.497Z,13.07
2023-04-26T13:33:33.931Z,12.80
2023-04-26T13:36:00.990Z,12.95
2023-04-26T13:38:28.002Z,12.58
2023-04-26T13:40:55.198Z,12.63
2023-04-26T13:43:22.194Z,12.77
2023-04-26T13:45:49.202Z,12.77
2023-04-26T13:48:16.639Z,12.63
2023-04-26T13:50:43.806Z,12.88
2023-04-26T13:53:11.407Z,12.71
2023-04-26T13:55:38.470Z,12.74
2023-04-26T13:58:05.489Z,12.60
2023-04-26T14:00:32.547Z,12.64
2023-04-26T14:02:59.689Z,12.86
2023-04-26T14:05:26.778Z,12.84
2023-04-26T14:07:55.194Z,12.62
2023-04-26T14:10:22.664Z,12.80
2023-04-26T14:12:49.762Z,12.60
2023-04-26T14:15:16.835Z,12.52
2023-04-26T14:17:46.721Z,12.43
2023-04-26T14:20:13.813Z,12.58
2023-04-26T14:22:41.072Z,12.51
2023-04-26T14:25:08.709Z,12.20
2023-04-26T14:27:37.922Z,12.29
2023-04-26T14:30:05.724Z,12.31
2023-04-26T14:32:33.162Z,12.16
2023-04-26T14:35:00.151Z,12.15
2023-04-26T14:37:27.516Z,12.04
2023-04-26T14:39:54.511Z,12.16
2023-04-26T14:42:21.560Z,12.28
2023-04-26T14:44:48.623Z,12.16
2023-04-26T14:47:15.669Z,12.18
2023-04-26T14:49:42.693Z,12.21
2023-04-26T14:52:09.722Z,12.14
2023-04-26T14:54:40.128Z,12.05
2023-04-26T14:57:07.805Z,11.87
2023-04-26T14:59:35.304Z,11.92
2023-04-26T15:02:02.911Z,12.09
2023-04-26T15:04:30.188Z,12.14
2023-04-26T15:06:57.395Z,12.18
2023-04-26T15:09:24.906Z,12.34
2023-04-26T15:11:51.931Z,12.24
2023-04-26T15:14:18.949Z,12.30
2023-04-26T15:16:45.989Z,12.29
2023-04-26T15:19:13.020Z,12.36
2023-04-26T15:21:40.057Z,12.19
2023-04-26T15:24:07.942Z,12.12
2023-04-26T15:26:34.987Z,12.28
2023-04-26T15:29:02.095Z,11.88
2023-04-26T15:31:29.188Z,11.72
2023-04-26T15:33:59.258Z,11.63
2023-04-26T15:36:26.276Z,11.49
2023-04-26T15:38:53.446Z,11.52
2023-04-26T15:41:20.502Z,11.39
2023-04-26T15:43:47.472Z,11.67
2023-04-26T15:46:15.258Z,11.61
2023-04-26T15:48:42.390Z,11.50
2023-04-26T15:51:09.439Z,11.58
2023-04-26T15:53:41.211Z,11.40
2023-04-26T15:56:15.618Z,11.42
2023-04-26T15:58:48.639Z,11.23
2023-04-26T16:01:15.997Z,11.11
2023-04-26T16:03:46.664Z,11.22
2023-04-26T16:06:14.689Z,11.16
2023-04-26T16:08:41.766Z,11.01
2023-04-26T16:11:08.795Z,11.09
2023-04-26T16:13:35.941Z,11.01
2023-04-26T16:16:08.291Z,11.11
2023-04-26T16:18:35.495Z,11.26
2023-04-26T16:21:10.036Z,11.09
2023-04-26T16:23:37.780Z,11.14
2023-04-26T16:26:05.552Z,11.19
2023-04-26T16:28:32.660Z,11.39
2023-04-26T16:31:00.040Z,11.26
2023-04-26T16:33:27.511Z,11.19
2023-04-26T16:35:57.880Z,11.22
2023-04-26T16:38:24.888Z,11.41
2023-04-26T16:40:58.820Z,11.18
2023-04-26T16:43:30.391Z,11.26
2023-04-26T16:46:05.888Z,11.21
2023-04-26T16:48:35.626Z,11.25
2023-04-26T16:51:07.095Z,11.00
2023-04-26T16:53:34.894Z,11.22
2023-04-26T16:56:01.951Z,11.08
2023-04-26T16:58:29.099Z,11.10
2023-04-26T17:00:56.429Z,11.03
2023-04-26T17:03:24.810Z,11.05
2023-04-26T17:05:52.097Z,11.08
2023-04-26T17:08:19.873Z,10.94
2023-04-26T17:10:47.841Z,10.83
2023-04-26T17:13:15.004Z,10.74
2023-04-26T17:15:43.325Z,10.77
2023-04-26T17:18:11.060Z,10.72
2023-04-26T17:20:38.226Z,10.74
2023-04-26T17:23:05.462Z,10.58
2023-04-26T17:25:32.539Z,10.56
2023-04-26T17:27:59.638Z,10.69
2023-04-26T17:30:26.664Z,10.73
2023-04-26T17:32:53.810Z,10.52
2023-04-26T17:35:20.970Z,10.58
2023-04-26T17:37:50.081Z,10.51
2023-04-26T17:40:18.678Z,10.51
2023-04-26T17:42:46.596Z,10.60
2023-04-26T17:45:14.453Z,10.35
2023-04-26T17:47:45.668Z,10.34
2023-04-26T17:50:12.774Z,10.35
2023-04-26T17:52:39.797Z,10.41
2023-04-26T17:55:09.999Z,10.48
2023-04-26T17:57:37.569Z,10.44
2023-04-26T18:00:10.252Z,10.40
2023-04-26T18:02:38.371Z,10.14
2023-04-26T18:05:08.659Z,10.24
2023-04-26T18:07:36.102Z,10.09
2023-04-26T18:10:04.226Z,10.22
2023-04-26T18:12:32.055Z,10.18
2023-04-26T18:14:59.223Z,10.23
2023-04-26T18:17:26.317Z,10.13
2023-04-26T18:19:53.400Z,9.98
2023-04-26T18:22:20.513Z,10.10
2023-04-26T18:24:47.534Z,10.24
2023-04-26T18:27:14.615Z,10.17
2023-04-26T18:29:41.690Z,10.07
2023-04-26T18:32:08.702Z,10.05
2023-04-26T18:34:35.804Z,9.90
2023-04-26T18:37:02.921Z,9.93
2023-04-26T18:39:30.412Z,10.03
2023-04-26T18:41:57.519Z,9.95
2023-04-26T18:44:24.541Z,9.87
2023-04-26T18:46:55.732Z,9.83
2023-04-26T18:49:23.854Z,9.80
2023-04-26T18:51:51.171Z,9.79
2023-04-26T18:54:18.136Z,9.67
2023-04-26T18:56:45.372Z,9.79
2023-04-26T18:59:12.616Z,9.83
2023-04-26T19:01:39.753Z,9.84
2023-04-26T19:04:09.108Z,9.67
2023-04-26T19:06:36.315Z,9.54
2023-04-26T19:09:04.597Z,9.70
2023-04-26T19:11:31.792Z,9.37
2023-04-26T19:13:58.764Z,9.37
2023-04-26T19:16:25.926Z,9.07
2023-04-26T19:18:52.983Z,9.09
2023-04-26T19:21:19.953Z,8.98
2023-04-26T19:23:46.920Z,9.03
2023-04-26T19:26:13.972Z,9.06
2023-04-26T19:28:41.663Z,8.95
2023-04-26T19:31:08.758Z,8.93
2023-04-26T19:33:37.032Z,8.77
2023-04-26T19:36:04.349Z,8.80
2023-04-26T19:38:31.463Z,8.74
2023-04-26T19:40:58.445Z,8.75
2023-04-26T19:43:25.640Z,8.72
2023-04-26T19:45:52.632Z,8.76
2023-04-26T19:48:19.592Z,8.61
2023-04-26T19:50:47.576Z,8.70
2023-04-26T19:53:15.496Z,8.57
2023-04-26T19:55:43.120Z,8.46
2023-04-26T19:58:11.012Z,8.38
2023-04-26T20:00:39.858Z,8.49
2023-04-26T20:03:07.116Z,8.41
2023-04-26T20:05:34.468Z,8.41
2023-04-26T20:08:01.808Z,8.39
2023-04-26T20:10:34.065Z,8.41
2023-04-26T20:13:01.511Z,8.28
2023-04-26T20:15:30.462Z,8.24
2023-04-26T20:17:58.733Z,8.05
2023-04-26T20:20:25.794Z,8.05
2023-04-26T20:22:52.814Z,8.04
2023-04-26T20:25:20.174Z,8.04
2023-04-26T20:27:48.069Z,8.03
2023-04-26T20:30:15.820Z,7.89
2023-04-26T20:32:43.305Z,7.92
2023-04-26T20:35:10.454Z,7.87
2023-04-26T20:37:37.459Z,7.88
2023-04-26T20:40:05.155Z,7.65
2023-04-26T20:42:32.149Z,7.56
2023-04-26T20:45:01.795Z,7.59
2023-04-26T20:47:29.700Z,7.49
2023-04-26T20:49:56.957Z,7.47
2023-04-26T20:52:24.033Z,7.63
2023-04-26T20:54:50.966Z,7.61
2023-04-26T20:57:17.961Z,7.51
2023-04-26T20:59:44.940Z,7.45
2023-04-26T21:02:11.992Z,7.42
2023-04-26T21:04:41.895Z,7.36
2023-04-26T21:07:12.552Z,7.40
2023-04-26T21:09:39.694Z,7.27
2023-04-26T21:12:06.969Z,7.16
2023-04-26T21:14:34.229Z,7.27
2023-04-26T21:17:01.543Z,7.19
2023-04-26T21:19:28.588Z,7.08
2023-04-26T21:21:55.719Z,7.23
2023-04-26T21:24:22.925Z,7.25
2023-04-26T21:26:50.067Z,7.13
2023-04-26T21:29:17.146Z,7.05
2023-04-26T21:31:44.331Z,6.96
2023-04-26T21:34:11.493Z,7.05
2023-04-26T21:36:38.465Z,7.03
2023-04-26T21:39:05.460Z,7.10
2023-04-26T21:41:32.585Z,7.05
2023-04-26T21:43:59.553Z,7.07
2023-04-26T21:46:26.958Z,6.98
2023-04-26T21:48:54.026Z,6.88
2023-04-26T21:51:21.053Z,6.78
2023-04-26T21:53:48.027Z,6.83
2023-04-26T21:56:15.143Z,6.78
2023-04-26T21:58:42.570Z,6.73
2023-04-26T22:01:18.665Z,6.62
2023-04-26T22:03:46.097Z,6.72
2023-04-26T22:06:13.194Z,6.65
2023-04-26T22:08:40.203Z,6.66
2023-04-26T22:11:07.187Z,6.57
2023-04-26T22:13:34.190Z,6.57
2023-04-26T22:16:01.242Z,6.54
2023-04-26T22:18:29.364Z,6.52
2023-04-26T22:20:56.505Z,6.29
2023-04-26T22:23:23.556Z,6.31
2023-04-26T22:25:50.646Z,6.21
2023-04-26T22:28:17.889Z,6.25
2023-04-26T22:30:44.891Z,6.25
2023-04-26T22:33:12.361Z,6.21
2023-04-26T22:35:39.754Z,6.19
2023-04-26T22:38:06.807Z,6.21
2023-04-26T22:40:33.896Z,6.15
2023-04-26T22:43:01.122Z,5.94
2023-04-26T22:45:28.280Z,5.89
2023-04-26T22:47:55.372Z,5.86
2023-04-26T22:50:22.545Z,5.91
2023-04-26T22:52:50.022Z,5.84
2023-04-26T22:55:17.732Z,5.90
2023-04-26T22:57:44.791Z,5.99
2023-04-26T23:00:12.829Z,5.79
2023-04-26T23:02:40.239Z,5.82
2023-04-26T23:05:10.725Z,5.83
2023-04-26T23:07:39.559Z,5.75
2023-04-26T23:10:07.505Z,5.73
2023-04-26T23:12:35.996Z,5.67
2023-04-26T23:15:05.115Z,5.73
2023-04-26T23:17:34.070Z,5.59
2023-04-26T23:20:01.805Z,5.71
2023-04-26T23:22:28.776Z,5.64
2023-04-26T23:24:55.914Z,5.46
2023-04-26T23:27:24.749Z,5.53
2023-04-26T23:29:51.869Z,5.60
2023-04-26T23:32:18.899Z,5.41
2023-04-26T23:34:45.895Z,5.42
2023-04-26T23:37:12.892Z,5.42
2023-04-26T23:39:39.902Z,5.47
2023-04-26T23:42:06.918Z,5.36
2023-04-26T23:44:33.996Z,5.45
2023-04-26T23:47:01.198Z,5.25
2023-04-26T23:49:28.333Z,5.31
2023-04-26T23:51:55.508Z,5.17
2023-04-26T23:54:22.521Z,5.19
2023-04-26T23:56:49.527Z,5.12
2023-04-26T23:59:16.907Z,5.07
